Terminal Aerodrome Forecast
Issued by NWS

Home | Current Version | Previous Version | Text Only | Print | Product List | Glossary On
Versions: 1 2 3 4 5 6 7 8 9 10 11 12 13 14 15 16 17 18 19 20 21 22 23 24 25 26 27 28 29 30 31 32 33 34 35 36 37 38 39 40
204
FTUS45 KBOI 072340
TAFJER
TAF
KJER 072340Z 0800/0824 09007KT P6SM SCT015
     FM080200 05017KT P6SM SCT250
     FM081000 05020G30KT P6SM BKN050 OVC100
     FM082200 05020G30KT 3SM -SHSN OVC015=

USA.gov is the U.S. government's official web portal to all federal, state and local government web resources and services.